Time;durP1;ratioP1;P1;durP2;ratioP2;P2;SDS_P1;SDS_P2;PMS_P1;PMS_P2;Temp;Humidity;BMP_temperature;BMP_pressure;BME280_temperature;BME280_humidity;BME280_pressure;Samples;Min_cycle;Max_cycle;Signal;HPM_P1;HPM_P2
2021/05/30 00:01:15;;;;;;;6.88;0.95;;;;;;;;;;5008568;28;20108;-71
2021/05/30 00:03:42;;;;;;;5.05;1.05;;;;;;;;;;5002249;28;20076;-71
2021/05/30 00:06:10;;;;;;;6.25;1.10;;;;;;;;;;5030511;28;20025;-71
2021/05/30 00:08:37;;;;;;;2.88;0.68;;;;;;;;;;5012957;28;20378;-72
2021/05/30 00:11:04;;;;;;;3.53;0.70;;;;;;;;;;5012766;28;20021;-70
2021/05/30 00:13:31;;;;;;;6.07;0.90;;;;;;;;;;5010697;28;20386;-71
2021/05/30 00:15:58;;;;;;;4.70;1.00;;;;;;;;;;5010182;28;20033;-71
2021/05/30 00:18:25;;;;;;;6.53;1.15;;;;;;;;;;5010652;28;20161;-70
2021/05/30 00:20:52;;;;;;;3.00;0.73;;;;;;;;;;5012718;28;20097;-70
2021/05/30 00:23:19;;;;;;;10.48;1.67;;;;;;;;;;5009656;28;20501;-70
2021/05/30 00:25:47;;;;;;;5.45;0.60;;;;;;;;;;5009467;28;20507;-71
2021/05/30 00:28:14;;;;;;;4.22;0.70;;;;;;;;;;5011122;28;20045;-72
2021/05/30 00:30:41;;;;;;;5.18;1.10;;;;;;;;;;5012599;28;20423;-70
2021/05/30 00:33:08;;;;;;;9.27;1.10;;;;;;;;;;5010831;28;20034;-72
2021/05/30 00:35:35;;;;;;;7.43;1.02;;;;;;;;;;5012374;28;20020;-72
2021/05/30 00:38:02;;;;;;;5.10;0.85;;;;;;;;;;5010694;28;20044;-72
2021/05/30 00:40:29;;;;;;;7.80;1.05;;;;;;;;;;5012340;28;20014;-72
2021/05/30 00:42:56;;;;;;;7.07;1.27;;;;;;;;;;5010319;28;20026;-71
2021/05/30 00:45:23;;;;;;;7.90;0.70;;;;;;;;;;5011230;28;20372;-71
2021/05/30 00:47:51;;;;;;;3.50;0.60;;;;;;;;;;5010163;28;20060;-71
2021/05/30 00:50:18;;;;;;;5.50;1.05;;;;;;;;;;5012500;28;20479;-71
2021/05/30 00:52:45;;;;;;;5.57;0.90;;;;;;;;;;5010608;28;20022;-70
2021/05/30 00:55:13;;;;;;;3.03;0.90;;;;;;;;;;5012514;28;20072;-71
2021/05/30 00:57:40;;;;;;;6.93;1.75;;;;;;;;;;5002817;28;20030;-72
2021/05/30 01:00:08;;;;;;;3.63;0.77;;;;;;;;;;4995825;28;20370;-72
2021/05/30 01:02:35;;;;;;;2.38;0.63;;;;;;;;;;4997093;28;20025;-72
2021/05/30 01:05:03;;;;;;;4.50;0.90;;;;;;;;;;4994796;28;20479;-72
2021/05/30 01:07:30;;;;;;;9.20;0.82;;;;;;;;;;5005086;28;20033;-72
2021/05/30 01:09:57;;;;;;;5.00;1.02;;;;;;;;;;5016801;28;20038;-72
2021/05/30 01:12:24;;;;;;;7.63;0.90;;;;;;;;;;5015783;28;20033;-73
2021/05/30 01:14:51;;;;;;;7.55;1.23;;;;;;;;;;5012628;28;20056;-71
2021/05/30 01:17:18;;;;;;;6.85;1.05;;;;;;;;;;5012160;28;20026;-70
2021/05/30 01:19:47;;;;;;;4.68;0.88;;;;;;;;;;5016446;28;20060;-71
2021/05/30 01:22:15;;;;;;;5.88;0.93;;;;;;;;;;5013122;28;20099;-69
2021/05/30 01:24:42;;;;;;;5.85;0.75;;;;;;;;;;5015513;28;20025;-70
2021/05/30 01:27:09;;;;;;;6.97;0.85;;;;;;;;;;5013761;28;20022;-71
2021/05/30 01:29:37;;;;;;;6.68;1.42;;;;;;;;;;5004436;28;20022;-70
2021/05/30 01:32:05;;;;;;;3.75;0.60;;;;;;;;;;5016474;28;20022;-70
2021/05/30 01:34:33;;;;;;;6.13;0.90;;;;;;;;;;5017164;28;20025;-71
2021/05/30 01:37:00;;;;;;;4.80;0.63;;;;;;;;;;5016321;28;20046;-70
2021/05/30 01:39:28;;;;;;;5.25;1.23;;;;;;;;;;5015923;28;20561;-70
2021/05/30 01:41:55;;;;;;;6.05;2.30;;;;;;;;;;5015434;28;20501;-71
2021/05/30 01:44:23;;;;;;;6.50;1.70;;;;;;;;;;5018253;28;20128;-70
2021/05/30 01:46:50;;;;;;;5.43;1.10;;;;;;;;;;5016386;28;20106;-70
2021/05/30 01:49:18;;;;;;;4.22;0.65;;;;;;;;;;5018326;28;20505;-70
2021/05/30 01:51:45;;;;;;;5.05;0.85;;;;;;;;;;5016130;28;20030;-70
2021/05/30 01:54:15;;;;;;;3.80;0.75;;;;;;;;;;5018441;28;20022;-70
2021/05/30 01:56:57;;;;;;;9.40;1.25;;;;;;;;;;5016235;28;20517;-71
2021/05/30 01:59:33;;;;;;;4.10;0.73;;;;;;;;;;5014680;28;20041;-71
2021/05/30 02:02:01;;;;;;;7.00;0.70;;;;;;;;;;5014930;28;20026;-71
2021/05/30 02:04:31;;;;;;;2.65;0.50;;;;;;;;;;4999078;28;20087;-71
2021/05/30 02:07:01;;;;;;;8.68;0.70;;;;;;;;;;5000073;28;20081;-71
2021/05/30 02:09:29;;;;;;;3.45;0.60;;;;;;;;;;5017545;28;20462;-71
2021/05/30 02:11:56;;;;;;;5.68;0.82;;;;;;;;;;5016125;28;20434;-71
2021/05/30 02:14:23;;;;;;;5.32;0.90;;;;;;;;;;5015223;28;20018;-72
2021/05/30 02:16:50;;;;;;;9.13;0.82;;;;;;;;;;5007015;28;20038;-72
2021/05/30 02:19:17;;;;;;;6.75;0.93;;;;;;;;;;4995538;28;20023;-71
2021/05/30 02:21:46;;;;;;;6.10;0.88;;;;;;;;;;4999620;28;20117;-71
2021/05/30 02:24:13;;;;;;;5.03;0.90;;;;;;;;;;5015120;28;20030;-71
2021/05/30 02:26:41;;;;;;;5.72;0.93;;;;;;;;;;5013122;28;20105;-71
2021/05/30 02:29:08;;;;;;;4.05;0.63;;;;;;;;;;5014565;28;20034;-71
2021/05/30 02:31:36;;;;;;;6.72;1.40;;;;;;;;;;5013231;28;20387;-71
2021/05/30 02:34:03;;;;;;;8.50;1.10;;;;;;;;;;5014253;28;20483;-72
2021/05/30 02:36:30;;;;;;;5.53;0.70;;;;;;;;;;5013887;28;20030;-71
2021/05/30 02:38:57;;;;;;;4.75;1.05;;;;;;;;;;4993619;28;20041;-71
2021/05/30 02:41:24;;;;;;;4.45;1.08;;;;;;;;;;4994919;28;20026;-71
2021/05/30 02:43:52;;;;;;;4.20;0.88;;;;;;;;;;4994260;28;20081;-71
2021/05/30 02:46:19;;;;;;;7.93;1.13;;;;;;;;;;4995071;28;20018;-71
2021/05/30 02:48:46;;;;;;;2.78;0.40;;;;;;;;;;5011721;28;20030;-71
2021/05/30 02:51:13;;;;;;;2.80;0.50;;;;;;;;;;5014510;28;20033;-71
2021/05/30 02:53:41;;;;;;;5.95;0.70;;;;;;;;;;5010750;28;20123;-71
2021/05/30 02:56:08;;;;;;;7.10;0.75;;;;;;;;;;4994721;28;20050;-70
2021/05/30 02:58:35;;;;;;;3.05;0.55;;;;;;;;;;5010148;28;20021;-71
2021/05/30 03:01:02;;;;;;;5.18;1.15;;;;;;;;;;5014007;28;20033;-71
2021/05/30 03:03:30;;;;;;;5.15;0.77;;;;;;;;;;5012063;28;20033;-71
2021/05/30 03:05:57;;;;;;;5.32;0.63;;;;;;;;;;5014115;28;20053;-71
2021/05/30 03:08:24;;;;;;;5.57;0.73;;;;;;;;;;5011855;28;20041;-71
2021/05/30 03:10:51;;;;;;;2.75;0.65;;;;;;;;;;5011852;28;20054;-71
2021/05/30 03:13:18;;;;;;;3.42;0.65;;;;;;;;;;5011285;28;20487;-71
2021/05/30 03:15:45;;;;;;;5.13;0.80;;;;;;;;;;5007461;28;20028;-71
2021/05/30 03:18:12;;;;;;;5.45;0.60;;;;;;;;;;5010146;28;20029;-71
2021/05/30 03:20:39;;;;;;;4.85;1.27;;;;;;;;;;5012316;28;20065;-71
2021/05/30 03:23:08;;;;;;;3.88;0.75;;;;;;;;;;5011197;28;20129;-71
2021/05/30 03:25:36;;;;;;;5.57;0.68;;;;;;;;;;5012318;28;20033;-71
2021/05/30 03:28:04;;;;;;;5.35;1.35;;;;;;;;;;5008490;28;20141;-72
2021/05/30 03:30:31;;;;;;;4.60;0.80;;;;;;;;;;5009894;28;20377;-71
2021/05/30 03:32:58;;;;;;;2.65;0.40;;;;;;;;;;5005865;28;20430;-71
2021/05/30 03:35:25;;;;;;;3.17;0.40;;;;;;;;;;5012541;28;20165;-70
2021/05/30 03:37:53;;;;;;;9.35;1.02;;;;;;;;;;5011576;28;20033;-70
2021/05/30 03:40:46;;;;;;;6.85;0.65;;;;;;;;;;5013569;28;20105;-71
2021/05/30 03:43:13;;;;;;;3.38;0.60;;;;;;;;;;5011938;28;20052;-71
2021/05/30 03:45:41;;;;;;;6.22;0.75;;;;;;;;;;5013313;28;20030;-70
2021/05/30 03:48:08;;;;;;;6.50;1.15;;;;;;;;;;5011343;28;20022;-70
2021/05/30 03:50:36;;;;;;;3.85;0.63;;;;;;;;;;5013237;28;20482;-71
2021/05/30 03:53:03;;;;;;;5.35;0.88;;;;;;;;;;5011834;28;20039;-70
2021/05/30 03:55:30;;;;;;;5.22;0.80;;;;;;;;;;5013524;28;20052;-71
2021/05/30 03:57:57;;;;;;;5.25;0.90;;;;;;;;;;5011082;28;20049;-71
2021/05/30 04:00:24;;;;;;;8.90;1.25;;;;;;;;;;5007482;28;21681;-69
2021/05/30 04:02:52;;;;;;;3.90;0.70;;;;;;;;;;5007584;28;20045;-68
2021/05/30 04:05:19;;;;;;;4.05;0.77;;;;;;;;;;5007455;28;20034;-68
2021/05/30 04:07:46;;;;;;;3.25;1.00;;;;;;;;;;5006987;28;20021;-70
2021/05/30 04:10:13;;;;;;;4.47;0.73;;;;;;;;;;5003615;28;20030;-70
2021/05/30 04:12:41;;;;;;;6.90;1.10;;;;;;;;;;5006247;28;20128;-70
2021/05/30 04:15:10;;;;;;;4.63;0.70;;;;;;;;;;5009768;28;20033;-69
2021/05/30 04:17:37;;;;;;;9.63;1.05;;;;;;;;;;5009361;28;20107;-69
2021/05/30 04:20:05;;;;;;;4.93;0.65;;;;;;;;;;5010056;28;20046;-71
2021/05/30 04:22:32;;;;;;;7.38;1.55;;;;;;;;;;5009584;28;20040;-71
2021/05/30 04:24:59;;;;;;;4.65;0.65;;;;;;;;;;5009472;28;20022;-71
2021/05/30 04:27:26;;;;;;;9.73;1.58;;;;;;;;;;5006649;28;20049;-73
2021/05/30 04:29:53;;;;;;;3.53;0.47;;;;;;;;;;5008540;28;20045;-72
2021/05/30 04:32:20;;;;;;;3.88;0.77;;;;;;;;;;5008061;28;20081;-72
2021/05/30 04:34:47;;;;;;;4.60;0.70;;;;;;;;;;5000531;28;20021;-72
2021/05/30 04:37:14;;;;;;;4.03;0.55;;;;;;;;;;5009229;28;20030;-69
2021/05/30 04:39:41;;;;;;;3.97;0.80;;;;;;;;;;5011483;28;20455;-72
2021/05/30 04:42:11;;;;;;;1.95;0.30;;;;;;;;;;5009577;28;20046;-71
2021/05/30 04:44:39;;;;;;;8.55;0.85;;;;;;;;;;5008009;28;20046;-72
2021/05/30 04:47:06;;;;;;;5.13;0.90;;;;;;;;;;5006904;28;20039;-69
2021/05/30 04:49:33;;;;;;;7.32;1.00;;;;;;;;;;5009843;28;20517;-69
2021/05/30 04:52:00;;;;;;;5.63;1.45;;;;;;;;;;5007751;28;20454;-69
2021/05/30 04:54:27;;;;;;;10.13;1.23;;;;;;;;;;5012023;28;20029;-69
2021/05/30 04:56:54;;;;;;;7.65;1.13;;;;;;;;;;5009230;28;20569;-68
2021/05/30 04:59:22;;;;;;;6.82;0.85;;;;;;;;;;5009741;28;20030;-69
2021/05/30 05:01:50;;;;;;;5.38;0.60;;;;;;;;;;5008485;28;20097;-70
2021/05/30 05:04:17;;;;;;;7.82;0.85;;;;;;;;;;5008162;28;20054;-71
2021/05/30 05:06:44;;;;;;;7.50;0.82;;;;;;;;;;5003637;28;20450;-71
2021/05/30 05:09:11;;;;;;;7.95;0.93;;;;;;;;;;5004708;28;20033;-70
2021/05/30 05:11:39;;;;;;;7.28;1.05;;;;;;;;;;4999816;28;20014;-70
2021/05/30 05:14:06;;;;;;;5.20;0.90;;;;;;;;;;5003347;28;20026;-71
2021/05/30 05:16:33;;;;;;;4.82;0.90;;;;;;;;;;5002969;28;20026;-72
2021/05/30 05:19:00;;;;;;;6.70;0.95;;;;;;;;;;5001114;28;20034;-70
2021/05/30 05:21:28;;;;;;;5.03;1.00;;;;;;;;;;5001122;28;20036;-70
2021/05/30 05:23:55;;;;;;;4.25;1.23;;;;;;;;;;5008303;28;20387;-70
2021/05/30 05:26:22;;;;;;;9.20;1.40;;;;;;;;;;5010290;28;20463;-69
2021/05/30 05:28:50;;;;;;;2.63;0.70;;;;;;;;;;4997539;28;20499;-69
2021/05/30 05:31:17;;;;;;;3.00;0.82;;;;;;;;;;5008559;28;20014;-68
2021/05/30 05:33:47;;;;;;;7.70;1.08;;;;;;;;;;4992213;28;20049;-69
2021/05/30 05:36:16;;;;;;;3.60;0.80;;;;;;;;;;5004942;28;20050;-71
2021/05/30 05:38:44;;;;;;;6.60;1.05;;;;;;;;;;5003899;28;20491;-71
2021/05/30 05:41:11;;;;;;;5.57;1.27;;;;;;;;;;5008889;28;20639;-71
2021/05/30 05:43:38;;;;;;;6.95;1.33;;;;;;;;;;5005620;28;20331;-72
2021/05/30 05:46:06;;;;;;;7.13;0.90;;;;;;;;;;5009030;28;20089;-69
2021/05/30 05:48:34;;;;;;;5.82;0.55;;;;;;;;;;5008891;28;20030;-69
2021/05/30 05:51:01;;;;;;;6.57;1.00;;;;;;;;;;5011401;28;20083;-69
2021/05/30 05:53:29;;;;;;;8.60;1.77;;;;;;;;;;5012401;28;20038;-70
2021/05/30 05:55:56;;;;;;;5.55;1.38;;;;;;;;;;5010973;28;20022;-71
2021/05/30 05:58:23;;;;;;;6.18;1.40;;;;;;;;;;5008841;28;20036;-69
2021/05/30 06:00:50;;;;;;;4.13;1.05;;;;;;;;;;5010613;28;20510;-69
2021/05/30 06:03:17;;;;;;;8.52;1.13;;;;;;;;;;5008345;28;20460;-69
2021/05/30 06:05:44;;;;;;;4.15;0.77;;;;;;;;;;5010876;28;20022;-69
2021/05/30 06:08:11;;;;;;;8.80;2.15;;;;;;;;;;5012853;28;20030;-72
2021/05/30 06:10:39;;;;;;;8.80;1.67;;;;;;;;;;5003823;28;20037;-69
2021/05/30 06:13:10;;;;;;;4.72;1.02;;;;;;;;;;5011376;28;20033;-69
2021/05/30 06:15:44;;;;;;;4.57;1.20;;;;;;;;;;4999492;28;20382;-69
2021/05/30 06:18:15;;;;;;;9.30;1.30;;;;;;;;;;5009362;28;20030;-69
2021/05/30 06:20:44;;;;;;;5.38;1.80;;;;;;;;;;5014104;28;20486;-70
2021/05/30 06:23:11;;;;;;;10.68;3.30;;;;;;;;;;5002386;28;20037;-69
2021/05/30 06:25:39;;;;;;;4.45;1.00;;;;;;;;;;5010129;28;20026;-69
2021/05/30 06:28:06;;;;;;;6.25;1.30;;;;;;;;;;5012759;28;20502;-69
2021/05/30 06:30:35;;;;;;;8.82;1.30;;;;;;;;;;5012571;28;20022;-69
2021/05/30 06:33:03;;;;;;;9.20;1.13;;;;;;;;;;5006997;28;20128;-70
2021/05/30 06:35:31;;;;;;;4.72;1.20;;;;;;;;;;5012108;28;20467;-70
2021/05/30 06:38:00;;;;;;;6.55;0.88;;;;;;;;;;5009883;28;20037;-69
2021/05/30 06:40:28;;;;;;;12.10;3.70;;;;;;;;;;5012815;28;20121;-69
2021/05/30 06:42:55;;;;;;;7.22;1.98;;;;;;;;;;5010148;28;20022;-70
2021/05/30 06:45:25;;;;;;;7.75;2.40;;;;;;;;;;5012659;28;20537;-70
2021/05/30 06:47:53;;;;;;;11.25;1.48;;;;;;;;;;5011856;28;20080;-70
2021/05/30 06:50:21;;;;;;;7.22;1.30;;;;;;;;;;5012312;28;20124;-70
2021/05/30 06:52:48;;;;;;;7.80;3.55;;;;;;;;;;5004136;28;20044;-69
2021/05/30 06:55:19;;;;;;;8.40;2.85;;;;;;;;;;4997366;28;20478;-69
2021/05/30 06:57:46;;;;;;;12.23;4.72;;;;;;;;;;5011373;28;20079;-70
2021/05/30 07:00:14;;;;;;;7.50;3.05;;;;;;;;;;5013317;28;20545;-70
2021/05/30 07:02:41;;;;;;;11.70;2.75;;;;;;;;;;5008812;28;20037;-70
2021/05/30 07:05:09;;;;;;;11.38;5.32;;;;;;;;;;5004598;28;20038;-70
2021/05/30 07:07:36;;;;;;;8.60;4.63;;;;;;;;;;5009159;28;20033;-70
2021/05/30 07:10:03;;;;;;;16.27;5.03;;;;;;;;;;5014774;28;20025;-70
2021/05/30 07:12:30;;;;;;;10.15;4.50;;;;;;;;;;5012483;28;20377;-69
2021/05/30 07:14:59;;;;;;;11.98;5.60;;;;;;;;;;5012393;28;20061;-69
2021/05/30 07:17:27;;;;;;;10.15;2.83;;;;;;;;;;5010896;28;20072;-70
2021/05/30 07:19:55;;;;;;;8.25;3.58;;;;;;;;;;5008525;28;20042;-70
2021/05/30 07:22:22;;;;;;;9.82;3.80;;;;;;;;;;5005154;28;20022;-70
2021/05/30 07:24:50;;;;;;;10.05;3.25;;;;;;;;;;5012168;28;20026;-70
2021/05/30 07:27:17;;;;;;;9.15;2.38;;;;;;;;;;5005897;28;20368;-69
2021/05/30 07:29:44;;;;;;;8.90;4.55;;;;;;;;;;5007555;28;20030;-70
2021/05/30 07:32:11;;;;;;;7.78;3.10;;;;;;;;;;5012590;28;20104;-69
2021/05/30 07:34:38;;;;;;;7.70;2.45;;;;;;;;;;5012683;28;20037;-70
2021/05/30 07:37:06;;;;;;;5.75;2.03;;;;;;;;;;5012908;28;20084;-69
2021/05/30 07:39:33;;;;;;;10.80;3.10;;;;;;;;;;5012939;28;20030;-69
2021/05/30 07:42:00;;;;;;;6.18;2.42;;;;;;;;;;5011721;28;20025;-69
2021/05/30 07:44:27;;;;;;;4.57;1.60;;;;;;;;;;5011739;28;20065;-69
2021/05/30 07:46:55;;;;;;;9.65;2.50;;;;;;;;;;5006894;28;20041;-68
2021/05/30 07:49:22;;;;;;;7.95;3.03;;;;;;;;;;5012025;28;20108;-69
2021/05/30 07:51:49;;;;;;;8.15;2.15;;;;;;;;;;5013323;28;20376;-68
2021/05/30 07:54:17;;;;;;;5.00;1.95;;;;;;;;;;5013011;28;20094;-69
2021/05/30 07:56:45;;;;;;;7.05;2.75;;;;;;;;;;5011276;28;20069;-69
2021/05/30 07:59:12;;;;;;;9.70;2.40;;;;;;;;;;5012445;28;20018;-69
2021/05/30 08:01:39;;;;;;;8.48;2.13;;;;;;;;;;5008211;28;20029;-69
2021/05/30 08:04:06;;;;;;;8.80;2.38;;;;;;;;;;5009401;28;20018;-70
2021/05/30 08:06:34;;;;;;;6.43;1.70;;;;;;;;;;5017029;28;20022;-70
2021/05/30 08:09:01;;;;;;;8.70;1.88;;;;;;;;;;5008045;28;20109;-69
2021/05/30 08:11:28;;;;;;;9.40;2.35;;;;;;;;;;5011873;28;20056;-69
2021/05/30 08:13:55;;;;;;;9.32;2.70;;;;;;;;;;5012117;28;20032;-69
2021/05/30 08:16:23;;;;;;;5.75;2.35;;;;;;;;;;5010947;28;20086;-69
2021/05/30 08:18:50;;;;;;;7.38;2.55;;;;;;;;;;5011284;28;20117;-69
2021/05/30 08:21:17;;;;;;;8.45;2.60;;;;;;;;;;5012156;28;20029;-69
2021/05/30 08:23:49;;;;;;;9.18;2.67;;;;;;;;;;5017861;28;20032;-69
2021/05/30 08:26:17;;;;;;;5.93;2.15;;;;;;;;;;5011738;28;20093;-69
2021/05/30 08:28:44;;;;;;;5.28;1.90;;;;;;;;;;5012050;28;20479;-68
2021/05/30 08:31:11;;;;;;;5.65;2.80;;;;;;;;;;5011903;28;20036;-68
2021/05/30 08:33:38;;;;;;;10.70;3.50;;;;;;;;;;5011052;28;20034;-68
2021/05/30 08:36:05;;;;;;;9.15;3.92;;;;;;;;;;5012263;28;20053;-68
2021/05/30 08:38:32;;;;;;;6.57;2.90;;;;;;;;;;5005234;28;20029;-68
2021/05/30 08:41:00;;;;;;;7.25;2.42;;;;;;;;;;5011165;28;20093;-68
2021/05/30 08:43:28;;;;;;;9.98;3.25;;;;;;;;;;5011384;28;20116;-68
2021/05/30 08:45:55;;;;;;;6.75;3.50;;;;;;;;;;5012243;28;20034;-68
2021/05/30 08:48:22;;;;;;;10.70;4.30;;;;;;;;;;5006365;28;20068;-68
2021/05/30 08:51:05;;;;;;;7.15;3.78;;;;;;;;;;5011399;28;20053;-69
2021/05/30 08:53:33;;;;;;;8.60;3.67;;;;;;;;;;5017103;28;20378;-68
2021/05/30 08:56:01;;;;;;;11.23;3.17;;;;;;;;;;5011350;28;20110;-69
2021/05/30 08:58:38;;;;;;;6.25;2.40;;;;;;;;;;5004490;28;20041;-71
2021/05/30 09:01:09;;;;;;;8.43;2.53;;;;;;;;;;5010828;28;20482;-68
2021/05/30 09:03:50;;;;;;;10.40;2.40;;;;;;;;;;5004536;28;20390;-69
2021/05/30 09:06:18;;;;;;;6.13;2.78;;;;;;;;;;5010959;28;20029;-70
2021/05/30 09:08:45;;;;;;;4.80;1.60;;;;;;;;;;5013830;28;20028;-68
2021/05/30 09:11:12;;;;;;;10.27;2.50;;;;;;;;;;5010890;28;20026;-68
2021/05/30 09:14:03;;;;;;;6.60;1.60;;;;;;;;;;5010502;28;20029;-68
2021/05/30 09:16:50;;;;;;;7.93;3.25;;;;;;;;;;5006236;28;20034;-70
2021/05/30 09:19:35;;;;;;;8.98;4.00;;;;;;;;;;5000990;28;20056;-70
2021/05/30 09:22:19;;;;;;;9.57;3.35;;;;;;;;;;5010430;28;20018;-70
2021/05/30 09:24:49;;;;;;;8.68;3.72;;;;;;;;;;5010842;28;20451;-69
2021/05/30 09:27:16;;;;;;;9.48;3.60;;;;;;;;;;5012453;28;20091;-70
2021/05/30 09:29:43;;;;;;;12.85;4.43;;;;;;;;;;5015246;28;20355;-70
2021/05/30 09:32:10;;;;;;;8.73;2.83;;;;;;;;;;5015274;28;20025;-69
2021/05/30 09:34:40;;;;;;;6.20;3.40;;;;;;;;;;5013730;28;20026;-69
2021/05/30 09:37:09;;;;;;;4.65;2.55;;;;;;;;;;5014844;28;20026;-69
2021/05/30 09:39:36;;;;;;;8.75;3.95;;;;;;;;;;5015028;28;20033;-69
2021/05/30 09:42:21;;;;;;;9.52;4.05;;;;;;;;;;5015033;28;20101;-69
2021/05/30 09:44:58;;;;;;;6.78;2.95;;;;;;;;;;5015517;28;20046;-69
2021/05/30 09:47:45;;;;;;;5.30;1.90;;;;;;;;;;5012954;28;20367;-70
2021/05/30 09:50:13;;;;;;;9.98;4.00;;;;;;;;;;5014130;28;20029;-70
2021/05/30 09:52:41;;;;;;;10.27;4.15;;;;;;;;;;5009327;28;20030;-70
2021/05/30 09:55:22;;;;;;;6.65;3.65;;;;;;;;;;5014859;28;20478;-70
2021/05/30 09:58:04;;;;;;;5.78;2.22;;;;;;;;;;5013712;28;20044;-70
2021/05/30 10:00:32;;;;;;;8.27;3.90;;;;;;;;;;5014982;28;20125;-70
2021/05/30 10:02:59;;;;;;;13.63;4.45;;;;;;;;;;5014830;28;20078;-69
2021/05/30 10:05:26;;;;;;;6.80;3.80;;;;;;;;;;5014811;28;20097;-70
2021/05/30 10:07:56;;;;;;;5.90;3.10;;;;;;;;;;5014096;28;20451;-69
2021/05/30 10:10:23;;;;;;;4.65;2.55;;;;;;;;;;5010436;28;20014;-69
2021/05/30 10:12:51;;;;;;;3.58;1.95;;;;;;;;;;5020023;28;20030;-70
2021/05/30 10:15:18;;;;;;;4.93;2.17;;;;;;;;;;5014280;28;20026;-70
2021/05/30 10:17:46;;;;;;;5.90;2.67;;;;;;;;;;5014241;28;20036;-70
2021/05/30 10:20:18;;;;;;;5.95;2.40;;;;;;;;;;5014057;28;20034;-70
2021/05/30 10:22:49;;;;;;;7.18;2.63;;;;;;;;;;5012668;28;20116;-69
2021/05/30 10:25:24;;;;;;;3.50;1.20;;;;;;;;;;5014522;28;20132;-69
2021/05/30 10:28:21;;;;;;;4.22;1.83;;;;;;;;;;5013017;28;20069;-69
2021/05/30 10:30:50;;;;;;;2.55;1.35;;;;;;;;;;5000118;28;20041;-69
2021/05/30 10:33:24;;;;;;;4.30;1.50;;;;;;;;;;5014677;28;20020;-69
2021/05/30 10:35:52;;;;;;;;;;;;;;;;;;5013370;28;20038;-69
2021/05/30 10:38:39;;;;;;;2.83;0.90;;;;;;;;;;5013251;28;20285;-69
2021/05/30 10:41:20;;;;;;;4.38;1.45;;;;;;;;;;5010674;28;20074;-70
2021/05/30 10:43:48;;;;;;;2.88;1.20;;;;;;;;;;5013528;28;20033;-69
2021/05/30 10:46:15;;;;;;;4.65;1.95;;;;;;;;;;5013817;28;20112;-70
2021/05/30 10:48:43;;;;;;;4.43;1.42;;;;;;;;;;5013481;28;20033;-69
2021/05/30 10:51:16;;;;;;;3.80;1.42;;;;;;;;;;5013477;28;20033;-69
2021/05/30 10:53:47;;;;;;;4.18;1.13;;;;;;;;;;5013669;28;20105;-69
2021/05/30 10:56:15;;;;;;;5.18;1.83;;;;;;;;;;5013486;28;20068;-69
2021/05/30 10:58:43;;;;;;;3.35;1.33;;;;;;;;;;5013617;28;20425;-69
2021/05/30 11:01:38;;;;;;;4.30;1.20;;;;;;;;;;5013433;28;20033;-69
2021/05/30 11:04:38;;;;;;;3.08;1.42;;;;;;;;;;5012056;28;20030;-69
2021/05/30 11:07:05;;;;;;;2.50;1.00;;;;;;;;;;4989064;28;20046;-69
2021/05/30 11:09:55;;;;;;;1.65;0.57;;;;;;;;;;5012073;28;20025;-69
2021/05/30 11:12:23;;;;;;;2.55;0.70;;;;;;;;;;5011498;28;20037;-69
2021/05/30 11:15:08;;;;;;;3.22;1.02;;;;;;;;;;5013921;28;20037;-69
2021/05/30 11:17:40;;;;;;;2.08;0.52;;;;;;;;;;5013058;28;20103;-69
2021/05/30 11:20:18;;;;;;;3.47;1.23;;;;;;;;;;5012789;28;20026;-70
2021/05/30 11:23:05;;;;;;;5.22;1.58;;;;;;;;;;5012933;28;20072;-68
2021/05/30 11:25:43;;;;;;;2.90;1.30;;;;;;;;;;5011951;28;20436;-68
2021/05/30 11:28:11;;;;;;;3.22;0.98;;;;;;;;;;5013015;28;20394;-68
2021/05/30 11:30:42;;;;;;;3.05;1.17;;;;;;;;;;5012889;28;20084;-69
2021/05/30 11:33:14;;;;;;;2.42;1.00;;;;;;;;;;5012378;28;20045;-69
2021/05/30 11:35:42;;;;;;;2.70;0.80;;;;;;;;;;5010157;28;20022;-69
2021/05/30 11:38:10;;;;;;;1.85;0.52;;;;;;;;;;5010767;28;20037;-68
2021/05/30 11:40:38;;;;;;;2.10;0.75;;;;;;;;;;5011124;28;20026;-68
2021/05/30 11:43:13;;;;;;;2.45;0.90;;;;;;;;;;5011967;28;20057;-69
2021/05/30 11:45:42;;;;;;;4.40;0.90;;;;;;;;;;5012541;28;20022;-68
2021/05/30 11:48:11;;;;;;;4.03;0.93;;;;;;;;;;5012142;28;20026;-69
2021/05/30 11:50:40;;;;;;;7.82;3.03;;;;;;;;;;5010393;28;20172;-68
2021/05/30 11:53:08;;;;;;;2.75;1.33;;;;;;;;;;5013146;28;20034;-68
2021/05/30 11:55:38;;;;;;;4.90;1.52;;;;;;;;;;5010253;28;20124;-69
2021/05/30 11:58:06;;;;;;;1.90;0.70;;;;;;;;;;5012696;28;20467;-68
2021/05/30 12:00:33;;;;;;;5.15;1.27;;;;;;;;;;5012544;28;20033;-69
2021/05/30 12:03:08;;;;;;;4.72;2.55;;;;;;;;;;5012767;28;20129;-69
2021/05/30 12:05:35;;;;;;;4.47;3.38;;;;;;;;;;5008742;28;20092;-69
2021/05/30 12:08:22;;;;;;;3.95;2.00;;;;;;;;;;5011609;28;20026;-69
2021/05/30 12:11:00;;;;;;;2.15;1.55;;;;;;;;;;5011243;28;20034;-69
2021/05/30 12:13:27;;;;;;;3.63;1.45;;;;;;;;;;5010356;28;20037;-69
2021/05/30 12:15:54;;;;;;;11.68;10.50;;;;;;;;;;5012244;28;20084;-69
2021/05/30 12:18:22;;;;;;;12.15;10.73;;;;;;;;;;5012472;28;20034;-69
2021/05/30 12:20:50;;;;;;;6.40;3.30;;;;;;;;;;5011992;28;20022;-69
2021/05/30 12:23:21;;;;;;;9.10;7.60;;;;;;;;;;5011160;28;20130;-68
2021/05/30 12:26:01;;;;;;;9.10;5.97;;;;;;;;;;5010883;28;20026;-69
2021/05/30 12:28:30;;;;;;;10.00;7.47;;;;;;;;;;5008446;28;20053;-69
2021/05/30 12:30:58;;;;;;;7.88;3.63;;;;;;;;;;5012126;28;20504;-69
2021/05/30 12:33:25;;;;;;;11.15;5.30;;;;;;;;;;5011327;28;20113;-69
2021/05/30 12:35:53;;;;;;;6.82;3.55;;;;;;;;;;5011790;28;20026;-68
2021/05/30 12:38:21;;;;;;;9.45;5.30;;;;;;;;;;5011041;28;20045;-68
2021/05/30 12:40:49;;;;;;;26.08;17.65;;;;;;;;;;5010732;28;20113;-69
2021/05/30 12:43:16;;;;;;;13.90;7.88;;;;;;;;;;5012142;28;20069;-69
2021/05/30 12:46:04;;;;;;;6.63;3.13;;;;;;;;;;5011783;28;20037;-68
2021/05/30 12:48:50;;;;;;;3.95;2.05;;;;;;;;;;5011663;28;20030;-69
2021/05/30 12:51:22;;;;;;;2.83;1.55;;;;;;;;;;5011025;28;20026;-69
2021/05/30 12:53:55;;;;;;;3.30;1.13;;;;;;;;;;5011418;28;20070;-68
2021/05/30 12:56:23;;;;;;;2.88;1.42;;;;;;;;;;5011656;28;20026;-68
2021/05/30 12:59:31;;;;;;;3.53;2.10;;;;;;;;;;5025820;28;20053;-68
2021/05/30 13:01:59;;;;;;;11.52;5.45;;;;;;;;;;4968755;28;20122;-68
2021/05/30 13:04:30;;;;;;;3.55;1.88;;;;;;;;;;4970726;28;20057;-69
2021/05/30 13:06:57;;;;;;;1.83;0.70;;;;;;;;;;4992392;28;20120;-68
2021/05/30 13:09:28;;;;;;;5.82;2.55;;;;;;;;;;5009869;28;20087;-69
2021/05/30 13:11:56;;;;;;;3.35;1.20;;;;;;;;;;5011350;28;20105;-70
2021/05/30 13:14:29;;;;;;;6.13;3.15;;;;;;;;;;5009925;28;20073;-69
2021/05/30 13:17:16;;;;;;;3.20;1.10;;;;;;;;;;5011479;28;20112;-69
2021/05/30 13:20:01;;;;;;;3.35;0.70;;;;;;;;;;5005294;28;20034;-69
2021/05/30 13:22:28;;;;;;;5.85;1.08;;;;;;;;;;4998719;28;20103;-69
2021/05/30 13:24:55;;;;;;;2.40;0.80;;;;;;;;;;5011890;28;20030;-69
2021/05/30 13:27:30;;;;;;;2.90;0.77;;;;;;;;;;5011396;28;20026;-70
2021/05/30 13:30:08;;;;;;;4.80;1.48;;;;;;;;;;5011734;28;20433;-70
2021/05/30 13:32:36;;;;;;;6.38;3.58;;;;;;;;;;5011720;28;20026;-69
2021/05/30 13:35:04;;;;;;;5.05;3.47;;;;;;;;;;5010345;28;20038;-70
2021/05/30 13:37:31;;;;;;;3.22;1.42;;;;;;;;;;5011287;28;20030;-70
2021/05/30 13:39:59;;;;;;;2.65;0.80;;;;;;;;;;5011182;28;20037;-69
2021/05/30 13:42:26;;;;;;;2.17;1.27;;;;;;;;;;5011198;28;20482;-69
2021/05/30 13:44:53;;;;;;;2.15;0.75;;;;;;;;;;5011342;28;20054;-70
2021/05/30 13:47:22;;;;;;;2.63;0.50;;;;;;;;;;5010223;28;20077;-69
2021/05/30 13:49:53;;;;;;;2.60;0.50;;;;;;;;;;5011380;28;20479;-69
2021/05/30 13:52:20;;;;;;;1.98;0.75;;;;;;;;;;5011619;28;20033;-69
2021/05/30 13:54:47;;;;;;;3.20;0.55;;;;;;;;;;5007966;28;20066;-69
2021/05/30 13:57:14;;;;;;;1.27;0.50;;;;;;;;;;5010097;28;20030;-69
2021/05/30 13:59:42;;;;;;;3.53;1.45;;;;;;;;;;5010159;28;20022;-70
2021/05/30 14:02:09;;;;;;;3.00;0.90;;;;;;;;;;5009660;28;20030;-69
2021/05/30 14:04:36;;;;;;;1.83;0.60;;;;;;;;;;5011664;28;20739;-69
2021/05/30 14:07:03;;;;;;;2.38;0.60;;;;;;;;;;5011126;28;20387;-69
2021/05/30 14:09:30;;;;;;;3.10;0.70;;;;;;;;;;5011408;28;20570;-69
2021/05/30 14:11:57;;;;;;;2.40;1.02;;;;;;;;;;5011271;28;20096;-69
2021/05/30 14:14:24;;;;;;;4.30;1.10;;;;;;;;;;5014740;28;20022;-69
2021/05/30 14:16:51;;;;;;;1.75;0.68;;;;;;;;;;5008418;28;20022;-69
2021/05/30 14:19:18;;;;;;;2.20;0.57;;;;;;;;;;5007807;28;20482;-69
2021/05/30 14:21:45;;;;;;;3.47;0.90;;;;;;;;;;5014448;28;20022;-70
2021/05/30 14:24:13;;;;;;;1.48;0.50;;;;;;;;;;5014533;28;20021;-69
2021/05/30 14:26:40;;;;;;;2.95;0.93;;;;;;;;;;5013386;28;20494;-69
2021/05/30 14:29:07;;;;;;;3.40;0.98;;;;;;;;;;5014333;28;20030;-69
2021/05/30 14:31:34;;;;;;;2.85;0.73;;;;;;;;;;5014501;28;20037;-70
2021/05/30 14:34:02;;;;;;;2.90;0.68;;;;;;;;;;5013802;28;20083;-69
2021/05/30 14:36:29;;;;;;;1.73;0.70;;;;;;;;;;5004205;28;20037;-70
2021/05/30 14:38:56;;;;;;;1.95;0.93;;;;;;;;;;5014456;28;20036;-70
2021/05/30 14:41:23;;;;;;;2.72;1.20;;;;;;;;;;5010894;28;20026;-69
2021/05/30 14:43:50;;;;;;;2.85;1.48;;;;;;;;;;5014368;28;20125;-69
2021/05/30 14:46:17;;;;;;;6.15;1.13;;;;;;;;;;5013776;28;20026;-69
2021/05/30 14:48:45;;;;;;;3.20;0.90;;;;;;;;;;5010823;28;20023;-69
2021/05/30 14:51:12;;;;;;;2.83;1.00;;;;;;;;;;5026982;28;20433;-70
2021/05/30 14:53:39;;;;;;;4.75;1.20;;;;;;;;;;5026878;28;20029;-70
2021/05/30 14:56:06;;;;;;;2.45;0.95;;;;;;;;;;5002798;28;20057;-70